Time;durP1;ratioP1;P1;durP2;ratioP2;P2;SDS_P1;SDS_P2;PMS_P1;PMS_P2;Temp;Humidity;BMP_temperature;BMP_pressure;BME280_temperature;BME280_humidity;BME280_pressure;Samples;Min_cycle;Max_cycle;Signal;HPM_P1;HPM_P2
2021/08/19 00:02:01;;;;;;;;;2.00;2.00;;;;;21.14;66.65;101497.34;5033445;28;45867;-74
2021/08/19 00:04:27;;;;;;;;;2.50;2.50;;;;;21.15;66.85;101501.75;5036190;28;45671;-74
2021/08/19 00:06:52;;;;;;;;;5.00;3.00;;;;;21.06;66.30;101486.41;5034347;28;45693;-74
2021/08/19 00:09:17;;;;;;;;;3.75;2.50;;;;;21.10;66.20;101493.22;5034123;28;46241;-74
2021/08/19 00:11:43;;;;;;;;;3.00;3.00;;;;;21.05;66.17;101493.56;5033563;28;45371;-74
2021/08/19 00:14:08;;;;;;;;;3.00;3.00;;;;;21.01;66.41;101486.75;5040280;28;45498;-73
2021/08/19 00:16:33;;;;;;;;;2.25;2.25;;;;;20.98;66.56;101489.63;5036194;28;45457;-74
2021/08/19 00:18:59;;;;;;;;;1.50;1.50;;;;;20.98;66.45;101489.63;5016245;28;47389;-74
2021/08/19 00:21:24;;;;;;;;;3.00;2.25;;;;;20.95;66.25;101489.03;5036560;28;45328;-73
2021/08/19 00:23:49;;;;;;;;;2.00;2.00;;;;;20.95;66.58;101492.53;5036579;28;45273;-74
2021/08/19 00:26:15;;;;;;;;;2.00;2.00;;;;;20.93;66.46;101486.44;5034004;28;46929;-74
2021/08/19 00:28:40;;;;;;;;;1.00;1.00;;;;;20.93;66.65;101480.25;5016604;28;47643;-74
2021/08/19 00:31:05;;;;;;;;;2.00;2.00;;;;;20.93;66.76;101477.59;5032949;28;50898;-74
2021/08/19 00:33:31;;;;;;;;;4.00;3.00;;;;;20.92;66.58;101470.53;5017886;28;45438;-74
2021/08/19 00:35:56;;;;;;;;;2.00;2.00;;;;;20.87;66.77;101460.19;5034553;28;45305;-74
2021/08/19 00:38:22;;;;;;;;;1.75;1.75;;;;;20.85;66.90;101465.66;5015729;28;46199;-74
2021/08/19 00:40:48;;;;;;;;;1.75;1.75;;;;;20.86;67.07;101469.19;5033116;28;45522;-74
2021/08/19 00:43:13;;;;;;;;;2.00;2.00;;;;;20.85;66.97;101467.47;5033990;28;45474;-74
2021/08/19 00:45:39;;;;;;;;;2.00;2.00;;;;;20.83;67.30;101458.75;5035899;28;45382;-74
2021/08/19 00:48:05;;;;;;;;;3.50;3.25;;;;;20.79;66.86;101454.59;5033947;28;45540;-75
2021/08/19 00:50:31;;;;;;;;;3.50;2.00;;;;;20.77;67.26;101461.84;5035770;28;45565;-74
2021/08/19 00:52:57;;;;;;;;;1.75;1.75;;;;;20.76;67.06;101460.16;5038064;28;45500;-73
2021/08/19 00:55:23;;;;;;;;;2.00;2.00;;;;;20.75;67.23;101461.97;5043023;28;45907;-73
2021/08/19 00:57:48;;;;;;;;;2.25;2.00;;;;;20.71;67.27;101473.84;5037105;28;45988;-74
2021/08/19 01:00:14;;;;;;;;;1.00;1.00;;;;;20.69;67.32;101459.75;5036149;28;45488;-74
2021/08/19 01:02:51;;;;;;;;;3.75;2.50;;;;;20.70;67.32;101473.97;5037463;28;45371;-74
2021/08/19 01:05:18;;;;;;;;;1.75;1.75;;;;;20.68;67.50;101463.41;5037624;28;45541;-74
2021/08/19 01:07:45;;;;;;;;;0.75;0.75;;;;;20.59;67.10;101450.72;5036204;28;45626;-74
2021/08/19 01:10:10;;;;;;;;;3.00;2.25;;;;;20.65;67.58;101462.75;5014320;28;46117;-74
2021/08/19 01:12:35;;;;;;;;;1.75;1.75;;;;;20.60;67.06;101463.09;5036609;28;45557;-74
2021/08/19 01:15:01;;;;;;;;;2.00;1.00;;;;;20.58;66.97;101460.56;5038049;28;45304;-74
2021/08/19 01:17:28;;;;;;;;;3.00;3.00;;;;;20.52;67.40;101458.34;5039452;28;46330;-74
2021/08/19 01:19:53;;;;;;;;;3.00;3.00;;;;;20.54;67.76;101461.72;5036181;28;45747;-74
2021/08/19 01:22:20;;;;;;;;;3.75;2.00;;;;;20.52;67.40;101457.47;5036671;28;45542;-75
2021/08/19 01:24:46;;;;;;;;;6.00;3.00;;;;;20.49;68.07;101452.34;5039479;28;45361;-74
2021/08/19 01:27:16;;;;;;;;;2.25;2.00;;;;;20.31;67.28;101431.34;5038641;28;45920;-74
2021/08/19 01:29:46;;;;;;;;;3.50;2.25;;;;;20.47;68.00;101447.13;5036284;28;45574;-74
2021/08/19 01:32:13;;;;;;;;;6.50;3.00;;;;;20.52;67.80;101452.16;5036204;28;45569;-75
2021/08/19 01:34:39;;;;;;;;;3.00;2.50;;;;;20.45;67.64;101435.66;5036860;28;45472;-74
2021/08/19 01:37:06;;;;;;;;;1.00;1.00;;;;;20.52;67.10;101454.81;5002499;28;48573;-74
2021/08/19 01:39:32;;;;;;;;;2.00;2.00;;;;;20.50;67.37;101449.56;5037216;28;45787;-75
2021/08/19 01:41:58;;;;;;;;;2.00;1.00;;;;;20.48;67.51;101442.66;5035891;28;45502;-74
2021/08/19 01:44:24;;;;;;;;;1.50;1.25;;;;;20.46;67.13;101448.06;5035820;28;45531;-75
2021/08/19 01:46:56;;;;;;;;;3.50;2.00;;;;;20.39;67.39;101436.13;5037037;28;46289;-75
2021/08/19 01:49:22;;;;;;;;;1.50;1.50;;;;;20.44;67.50;101444.66;5035909;28;45828;-75
2021/08/19 01:51:48;;;;;;;;;1.75;1.75;;;;;20.44;67.49;101444.66;5037051;28;45535;-75
2021/08/19 01:54:13;;;;;;;;;1.25;0.50;;;;;20.34;67.59;101424.91;5037004;28;45390;-75
2021/08/19 01:56:39;;;;;;;;;3.25;1.50;;;;;20.42;67.25;101449.25;5039002;28;46044;-74
2021/08/19 01:59:04;;;;;;;;;2.50;2.50;;;;;20.41;66.95;101446.69;5043456;28;45492;-75
2021/08/19 02:01:30;;;;;;;;;3.00;1.50;;;;;20.37;66.78;101435.38;5039499;28;46981;-75
2021/08/19 02:03:55;;;;;;;;;3.00;3.00;;;;;20.36;66.72;101439.03;5037934;28;45723;-76
2021/08/19 02:06:21;;;;;;;;;1.50;1.50;;;;;20.32;66.88;101443.72;5035829;28;45717;-75
2021/08/19 02:08:47;;;;;;;;;2.50;2.00;;;;;20.29;67.00;101443.94;5035570;28;45417;-75
2021/08/19 02:11:13;;;;;;;;;4.25;2.00;;;;;20.25;67.11;101437.09;5037153;28;45319;-77
2021/08/19 02:13:39;;;;;;;;;3.25;1.50;;;;;20.19;67.87;101426.88;5044977;28;45512;-75
2021/08/19 02:16:05;;;;;;;;;1.25;1.25;;;;;20.23;67.58;101438.19;5030909;28;46373;-75
2021/08/19 02:18:31;;;;;;;;;2.75;2.25;;;;;20.24;67.41;101437.22;5045365;28;45767;-76
2021/08/19 02:20:56;;;;;;;;;3.75;2.50;;;;;20.16;67.20;101427.13;5037829;28;45285;-76
2021/08/19 02:23:21;;;;;;;;;2.25;2.25;;;;;20.23;67.38;101444.38;5035731;28;45442;-75
2021/08/19 02:25:47;;;;;;;;;3.00;3.00;;;;;20.21;67.32;101440.16;5036533;28;46468;-75
2021/08/19 02:28:12;;;;;;;;;3.75;1.50;;;;;20.18;67.43;101441.19;5039455;28;45718;-75
2021/08/19 02:30:37;;;;;;;;;2.25;1.00;;;;;20.16;67.32;101440.47;5020140;28;45379;-75
2021/08/19 02:33:03;;;;;;;;;3.25;2.00;;;;;20.15;67.89;101436.09;5036300;28;47725;-75
2021/08/19 02:35:30;;;;;;;;;4.75;3.00;;;;;20.15;67.46;101435.22;5036760;28;45484;-75
2021/08/19 02:37:59;;;;;;;;;3.75;2.50;;;;;20.10;67.37;101424.03;5035735;28;45687;-74
2021/08/19 02:40:26;;;;;;;;;3.50;3.00;;;;;20.10;67.33;101427.56;5036957;28;45359;-75
2021/08/19 02:42:51;;;;;;;;;2.50;1.00;;;;;20.15;67.08;101433.44;5036016;28;45680;-75
2021/08/19 02:45:16;;;;;;;;;3.00;2.00;;;;;20.13;67.07;101435.34;5041188;28;46113;-74
2021/08/19 02:47:42;;;;;;;;;1.25;1.25;;;;;20.12;67.19;101420.31;5035566;28;45486;-75
2021/08/19 02:50:08;;;;;;;;;1.50;1.50;;;;;20.12;66.96;101424.78;5035329;28;45324;-74
2021/08/19 02:52:34;;;;;;;;;3.00;2.00;;;;;20.09;67.62;101420.50;5043476;28;45495;-77
2021/08/19 02:54:59;;;;;;;;;2.50;2.50;;;;;20.10;67.58;101418.69;5035947;28;45865;-78
2021/08/19 02:57:24;;;;;;;;;2.50;1.75;;;;;20.10;67.19;101413.34;5038804;28;45522;-75
2021/08/19 02:59:50;;;;;;;;;1.00;1.00;;;;;20.08;67.57;101413.47;5018885;28;45450;-75
2021/08/19 03:02:15;;;;;;;;;2.00;1.25;;;;;20.09;67.21;101415.16;5038455;28;59074;-74
2021/08/19 03:04:40;;;;;;;;;2.00;2.00;;;;;20.09;67.22;101412.50;5046181;28;45477;-74
2021/08/19 03:07:09;;;;;;;;;2.00;2.00;;;;;19.97;67.36;101395.56;5035544;28;45489;-75
2021/08/19 03:09:34;;;;;;;;;3.25;3.25;;;;;20.04;67.52;101409.31;5033224;28;45426;-74
2021/08/19 03:11:59;;;;;;;;;2.00;2.00;;;;;19.98;67.13;101396.41;5017583;28;45370;-75
2021/08/19 03:14:25;;;;;;;;;3.00;1.25;;;;;19.99;67.04;101403.44;5038971;28;58112;-74
2021/08/19 03:16:50;;;;;;;;;2.00;2.00;;;;;20.02;66.75;101412.09;5034527;28;52071;-74
2021/08/19 03:19:15;;;;;;;;;2.75;1.00;;;;;20.02;67.33;101411.25;5035647;28;45352;-75
2021/08/19 03:21:41;;;;;;;;;2.00;2.00;;;;;19.94;67.03;101401.13;5037644;28;45474;-74
2021/08/19 03:24:06;;;;;;;;;2.50;2.50;;;;;20.01;67.01;101407.72;5043390;28;45398;-74
2021/08/19 03:26:32;;;;;;;;;3.00;1.25;;;;;20.01;66.92;101405.06;5034633;28;45515;-74
2021/08/19 03:28:58;;;;;;;;;2.75;1.25;;;;;20.03;66.96;101407.63;5046603;28;45623;-75
2021/08/19 03:31:25;;;;;;;;;3.25;2.50;;;;;20.05;67.30;101408.38;5034791;28;45820;-74
2021/08/19 03:33:50;;;;;;;;;2.00;1.75;;;;;20.04;67.22;101406.63;5043500;28;46605;-74
2021/08/19 03:36:15;;;;;;;;;1.25;1.25;;;;;20.04;67.27;101406.63;5034239;28;45415;-75
2021/08/19 03:38:42;;;;;;;;;2.25;2.25;;;;;19.97;67.00;101398.22;5035623;28;45454;-74
2021/08/19 03:41:08;;;;;;;;;2.50;2.50;;;;;20.06;66.79;101402.06;5033717;28;45414;-74
2021/08/19 03:43:33;;;;;;;;;3.50;2.00;;;;;20.05;67.02;101406.56;5034430;28;45660;-74
2021/08/19 03:45:58;;;;;;;;;1.75;1.75;;;;;20.02;66.73;101405.91;5033925;28;45391;-74
2021/08/19 03:48:24;;;;;;;;;2.50;2.50;;;;;20.01;66.59;101401.53;5035034;28;45753;-74
2021/08/19 03:50:49;;;;;;;;;3.50;2.50;;;;;20.01;67.05;101396.22;5034039;28;45480;-74
2021/08/19 03:53:14;;;;;;;;;3.50;2.75;;;;;20.00;66.43;101395.34;5033795;28;46899;-75
2021/08/19 03:55:40;;;;;;;;;3.00;2.00;;;;;19.98;66.93;101385.75;5033829;28;45462;-76
2021/08/19 03:58:05;;;;;;;;;5.50;2.00;;;;;19.99;67.00;101399.00;5034643;28;45708;-75
2021/08/19 04:00:30;;;;;;;;;2.50;1.75;;;;;19.95;66.97;101394.00;5034564;28;45380;-75
2021/08/19 04:02:56;;;;;;;;;2.00;2.00;;;;;19.93;66.69;101395.91;5033833;28;45510;-74
2021/08/19 04:05:21;;;;;;;;;2.00;2.00;;;;;19.96;66.59;101409.03;5033867;28;56543;-74
2021/08/19 04:07:46;;;;;;;;;2.75;2.75;;;;;19.94;67.12;101395.81;5034175;28;45432;-74
2021/08/19 04:10:12;;;;;;;;;1.75;1.50;;;;;19.92;67.21;101391.53;5035463;28;45348;-75
2021/08/19 04:12:38;;;;;;;;;2.25;2.25;;;;;19.88;67.33;101388.22;5033912;28;45314;-75
2021/08/19 04:15:05;;;;;;;;;3.00;2.00;;;;;19.91;66.84;101389.81;5043814;28;45451;-74
2021/08/19 04:17:31;;;;;;;;;1.75;1.75;;;;;19.64;67.33;101347.31;5038493;28;45646;-74
2021/08/19 04:19:56;;;;;;;;;4.00;1.25;;;;;19.89;67.04;101389.94;5034094;28;45561;-74
2021/08/19 04:22:22;;;;;;;;;2.00;2.00;;;;;19.88;67.58;101398.03;5033142;28;45465;-74
2021/08/19 04:24:47;;;;;;;;;1.75;1.75;;;;;19.87;67.04;101388.34;5034286;28;47859;-75
2021/08/19 04:27:12;;;;;;;;;2.25;2.25;;;;;19.77;67.55;101390.81;5033882;28;47977;-74
2021/08/19 04:29:38;;;;;;;;;1.75;1.75;;;;;19.82;67.16;101394.00;5036283;28;45495;-75
2021/08/19 04:32:04;;;;;;;;;3.25;2.00;;;;;19.81;67.53;101394.97;5033267;28;45736;-74
2021/08/19 04:34:30;;;;;;;;;3.50;3.25;;;;;19.79;67.62;101391.56;5036687;28;45309;-74
2021/08/19 04:36:56;;;;;;;;;2.75;2.75;;;;;19.77;67.42;101393.47;5034507;28;45641;-75
2021/08/19 04:39:22;;;;;;;;;2.50;2.50;;;;;19.76;67.51;101386.44;5036274;28;45420;-74
2021/08/19 04:41:47;;;;;;;;;3.25;2.00;;;;;19.72;67.54;101384.94;5033199;28;45284;-74
2021/08/19 04:44:13;;;;;;;;;2.00;2.00;;;;;19.69;67.63;101385.19;5033735;28;45343;-74
2021/08/19 04:46:38;;;;;;;;;3.00;3.00;;;;;19.66;67.65;101388.91;5036816;28;53107;-74
2021/08/19 04:49:06;;;;;;;;;2.25;2.00;;;;;19.65;67.88;101394.34;5034361;28;45718;-75
2021/08/19 04:51:35;;;;;;;;;4.00;3.25;;;;;19.65;67.87;101389.03;5033067;28;45475;-75
2021/08/19 04:54:02;;;;;;;;;3.00;3.00;;;;;19.61;67.66;101385.72;5032525;28;45837;-75
2021/08/19 04:56:29;;;;;;;;;5.00;3.75;;;;;19.64;67.95;101389.97;5032845;28;45606;-75
2021/08/19 04:58:55;;;;;;;;;5.25;3.25;;;;;19.67;67.93;101395.94;5034292;28;45437;-74
2021/08/19 05:01:20;;;;;;;;;4.50;4.00;;;;;19.66;67.86;101393.38;5033159;28;46347;-75
2021/08/19 05:03:46;;;;;;;;;3.50;2.50;;;;;19.67;67.75;101400.41;5032804;28;57537;-75
2021/08/19 05:06:11;;;;;;;;;3.75;3.50;;;;;19.66;67.78;101404.91;5034200;28;45818;-74
2021/08/19 05:08:36;;;;;;;;;5.50;4.75;;;;;19.67;67.70;101405.75;5032990;28;58333;-74
2021/08/19 05:11:01;;;;;;;;;4.75;4.00;;;;;19.69;67.32;101410.03;5032621;28;45277;-74
2021/08/19 05:13:27;;;;;;;;;5.00;4.00;;;;;19.67;67.70;101409.25;5033218;28;45494;-74
2021/08/19 05:15:52;;;;;;;;;3.00;3.00;;;;;19.65;67.84;101405.00;5036412;28;45368;-75
2021/08/19 05:18:17;;;;;;;;;3.00;3.00;;;;;19.69;67.51;101409.19;5032929;28;49855;-74
2021/08/19 05:20:43;;;;;;;;;3.50;1.50;;;;;19.62;67.64;101399.88;5037187;28;62735;-74
2021/08/19 05:23:08;;;;;;;;;3.50;3.50;;;;;19.73;67.68;101415.97;5040402;28;45550;-75
2021/08/19 05:25:33;;;;;;;;;4.75;2.75;;;;;19.73;67.70;101415.97;5034628;28;45350;-74
2021/08/19 05:27:59;;;;;;;;;3.25;3.25;;;;;19.75;68.37;101419.41;5046881;28;45349;-74
2021/08/19 05:30:24;;;;;;;;;7.00;4.00;;;;;19.70;67.92;101406.41;5036020;28;46032;-74
2021/08/19 05:32:49;;;;;;;;;3.50;2.50;;;;;19.79;67.69;101418.25;5039891;28;47756;-74
2021/08/19 05:35:15;;;;;;;;;4.50;3.50;;;;;19.82;67.86;101415.34;5037125;28;45515;-74
2021/08/19 05:37:40;;;;;;;;;4.75;3.50;;;;;19.86;67.88;101418.66;5037907;28;45385;-74
2021/08/19 05:40:06;;;;;;;;;4.75;4.75;;;;;19.81;68.24;101417.16;5036681;28;49806;-74
2021/08/19 05:42:32;;;;;;;;;7.25;6.25;;;;;19.86;67.80;101421.31;5041080;28;45783;-74
2021/08/19 05:44:57;;;;;;;;;5.75;5.50;;;;;19.68;67.93;101388.78;5036357;28;45399;-75
2021/08/19 05:47:22;;;;;;;;;7.25;5.00;;;;;19.84;67.73;101413.44;5041399;28;45513;-75
2021/08/19 05:49:48;;;;;;;;;6.50;6.00;;;;;19.90;68.00;101426.31;5035795;28;46179;-74
2021/08/19 05:52:15;;;;;;;;;7.00;6.00;;;;;19.91;67.64;101435.19;5040671;28;45849;-75
2021/08/19 05:54:41;;;;;;;;;4.50;4.50;;;;;19.87;67.91;101421.19;5036070;28;45359;-77
2021/08/19 05:57:06;;;;;;;;;3.75;3.75;;;;;19.90;68.05;101426.31;5036429;28;45403;-74
2021/08/19 05:59:31;;;;;;;;;6.00;6.00;;;;;19.91;67.99;101424.50;5035964;28;45513;-76
2021/08/19 06:01:57;;;;;;;;;10.00;7.50;;;;;19.71;67.32;101397.44;5038443;28;45426;-76
2021/08/19 06:04:22;;;;;;;;;6.75;5.00;;;;;19.89;67.84;101426.41;5035854;28;45463;-75
2021/08/19 06:06:47;;;;;;;;;7.75;6.50;;;;;19.77;68.04;101404.13;5028752;28;45485;-75
2021/08/19 06:09:14;;;;;;;;;6.00;5.00;;;;;19.86;67.69;101419.50;5035971;28;59386;-76
2021/08/19 06:11:39;;;;;;;;;8.25;7.50;;;;;19.81;67.60;101416.31;5039416;28;45713;-75
2021/08/19 06:14:04;;;;;;;;;9.25;5.75;;;;;19.81;67.34;101419.81;5025340;28;45852;-75
2021/08/19 06:16:30;;;;;;;;;7.50;5.50;;;;;19.80;67.86;101420.78;5036527;28;45433;-74
2021/08/19 06:18:56;;;;;;;;;12.25;6.25;;;;;19.81;67.18;101419.81;5037069;28;46065;-75
2021/08/19 06:21:22;;;;;;;;;5.00;5.00;;;;;19.77;68.10;101421.00;5037368;28;45335;-75
2021/08/19 06:23:47;;;;;;;;;6.75;6.25;;;;;19.79;68.30;101421.75;5040646;28;45531;-75
2021/08/19 06:26:12;;;;;;;;;6.75;5.00;;;;;19.80;68.34;101418.13;5037761;28;45557;-75
2021/08/19 06:28:37;;;;;;;;;8.50;5.75;;;;;19.84;68.19;101410.75;5035566;28;45647;-75
2021/08/19 06:31:03;;;;;;;;;9.25;8.00;;;;;19.92;68.32;101415.53;5039538;28;45397;-74
2021/08/19 06:33:28;;;;;;;;;9.25;6.25;;;;;19.95;67.61;101421.50;5037506;28;45546;-75
2021/08/19 06:35:54;;;;;;;;;5.75;5.75;;;;;19.99;67.96;101417.69;5035241;28;52180;-75
2021/08/19 06:38:19;;;;;;;;;7.25;4.75;;;;;19.99;68.13;101412.34;5036613;28;45897;-74
2021/08/19 06:40:44;;;;;;;;;9.00;7.00;;;;;20.12;68.14;101419.44;5035524;28;45410;-74
2021/08/19 06:43:10;;;;;;;;;7.00;5.00;;;;;20.14;67.34;101417.50;5035948;28;45490;-74
2021/08/19 06:45:35;;;;;;;;;10.00;6.50;;;;;20.11;67.68;101409.75;5027302;28;45503;-75
2021/08/19 06:48:00;;;;;;;;;7.50;5.25;;;;;20.15;67.22;101409.41;5035272;28;47158;-74
2021/08/19 06:50:26;;;;;;;;;6.50;5.00;;;;;20.22;66.62;101425.81;5037326;28;45489;-74
2021/08/19 06:52:51;;;;;;;;;3.50;2.00;;;;;20.23;66.56;101416.84;5035564;28;45825;-75
2021/08/19 06:55:16;;;;;;;;;6.25;6.25;;;;;20.21;66.47;101416.13;5035032;28;45544;-76
2021/08/19 06:57:42;;;;;;;;;6.50;4.25;;;;;20.22;66.71;101416.00;5046858;28;46254;-75
2021/08/19 07:00:08;;;;;;;;;4.75;4.75;;;;;20.29;66.29;101424.41;5034443;28;45574;-74
2021/08/19 07:02:34;;;;;;;;;6.75;6.75;;;;;20.28;65.99;101418.22;5034573;28;45486;-74
2021/08/19 07:05:00;;;;;;;;;4.75;4.00;;;;;20.15;65.87;101408.53;5035906;28;47697;-74
2021/08/19 07:07:28;;;;;;;;;4.25;4.25;;;;;20.22;66.05;101420.50;5033028;28;45892;-74
2021/08/19 07:09:59;;;;;;;;;4.50;4.50;;;;;20.27;66.55;101429.00;5036363;28;45503;-74
2021/08/19 07:12:24;;;;;;;;;8.25;6.00;;;;;20.33;66.19;101425.91;5040915;28;45605;-74
2021/08/19 07:14:50;;;;;;;;;5.50;4.75;;;;;20.38;66.33;101429.09;5037743;28;45380;-75
2021/08/19 07:17:16;;;;;;;;;5.75;5.25;;;;;20.45;65.88;101426.81;5037971;28;46287;-74
2021/08/19 07:19:41;;;;;;;;;5.50;5.50;;;;;20.48;66.55;101421.28;5045358;28;45520;-73
2021/08/19 07:22:06;;;;;;;;;7.00;5.25;;;;;20.53;65.33;101424.47;5036306;28;45934;-74
2021/08/19 07:24:32;;;;;;;;;8.50;8.00;;;;;20.56;66.01;101422.41;5033022;28;45507;-73
2021/08/19 07:26:57;;;;;;;;;7.75;5.00;;;;;20.56;65.49;101419.72;5043600;28;46026;-74
2021/08/19 07:29:22;;;;;;;;;11.25;6.00;;;;;20.63;65.83;101422.81;5036588;28;45380;-74
2021/08/19 07:31:48;;;;;;;;;5.00;4.75;;;;;20.68;64.87;101419.81;5034953;28;45426;-74
2021/08/19 07:34:13;;;;;;;;;4.75;4.75;;;;;20.74;64.86;101422.03;5037467;28;45446;-73
2021/08/19 07:36:39;;;;;;;;;7.00;5.25;;;;;20.75;64.68;101418.38;5038575;28;46859;-73
2021/08/19 07:39:04;;;;;;;;;6.50;5.50;;;;;20.80;65.27;101416.22;5038119;28;45582;-75
2021/08/19 07:41:34;;;;;;;;;5.75;5.75;;;;;20.87;64.71;101411.25;5033443;28;46118;-75
2021/08/19 07:43:59;;;;;;;;;7.00;5.25;;;;;20.79;64.73;101401.16;5037481;28;45564;-75
2021/08/19 07:46:26;;;;;;;;;5.50;5.00;;;;;20.91;64.53;101410.06;5031055;28;46210;-74
2021/08/19 07:48:52;;;;;;;;;7.50;6.25;;;;;20.97;64.56;101413.13;5035119;28;45897;-73
2021/08/19 07:51:17;;;;;;;;;9.00;5.50;;;;;21.07;64.04;101407.91;5040268;28;45525;-77
2021/08/19 07:53:43;;;;;;;;;8.25;5.25;;;;;21.12;64.52;101403.06;5036161;28;45483;-76
2021/08/19 07:56:09;;;;;;;;;7.75;7.00;;;;;21.18;63.52;101399.94;5030226;28;47330;-75
2021/08/19 07:58:34;;;;;;;;;8.00;4.25;;;;;21.23;63.58;101412.94;5038200;28;45466;-76
2021/08/19 08:01:00;;;;;;;;;7.25;6.50;;;;;21.04;63.59;101401.00;5044191;28;45366;-77
2021/08/19 08:03:26;;;;;;;;;6.25;5.00;;;;;21.05;63.68;101409.88;5020491;28;45403;-75
2021/08/19 08:05:51;;;;;;;;;9.25;6.50;;;;;20.96;63.35;101415.91;5036120;28;46110;-76
2021/08/19 08:08:17;;;;;;;;;10.00;8.25;;;;;20.88;63.52;101424.53;5032677;28;45356;-76
2021/08/19 08:10:43;;;;;;;;;7.25;5.75;;;;;20.81;63.75;101417.91;5036919;28;47284;-77
2021/08/19 08:13:10;;;;;;;;;9.50;6.50;;;;;20.80;63.96;101425.06;5022079;28;45404;-76
2021/08/19 08:15:37;;;;;;;;;7.00;6.00;;;;;20.75;64.23;101415.72;5035452;28;45875;-75
2021/08/19 08:18:04;;;;;;;;;8.00;5.75;;;;;20.82;64.56;101424.94;5033396;28;45375;-76
2021/08/19 08:20:29;;;;;;;;;7.50;7.00;;;;;20.90;64.46;101425.25;5036356;28;45432;-76
2021/08/19 08:22:55;;;;;;;;;8.50;7.25;;;;;20.96;63.87;101430.13;5037465;28;45425;-76
2021/08/19 08:25:20;;;;;;;;;10.75;7.75;;;;;21.04;64.37;101422.38;5031845;28;46451;-78
2021/08/19 08:28:00;;;;;;;;;7.75;5.50;;;;;21.07;64.22;101430.16;5035780;28;45377;-77
2021/08/19 08:30:27;;;;;;;;;7.50;6.75;;;;;21.12;64.31;101419.13;5036822;28;45615;-75
2021/08/19 08:32:52;;;;;;;;;10.50;7.00;;;;;21.22;64.60;101422.78;5043880;28;45383;-75
2021/08/19 08:35:18;;;;;;;;;7.25;6.75;;;;;21.30;63.62;101424.91;5044129;28;45359;-75
2021/08/19 08:37:43;;;;;;;;;18.25;16.25;;;;;21.42;63.26;101439.16;5029273;28;45373;-75
2021/08/19 08:40:12;;;;;;;;;8.75;7.50;;;;;21.46;63.31;101424.59;5032096;28;45368;-76
2021/08/19 08:42:39;;;;;;;;;7.25;4.25;;;;;21.59;62.59;101428.84;5041043;28;45305;-75
2021/08/19 08:45:04;;;;;;;;;7.25;6.25;;;;;21.62;63.00;101433.09;5031040;28;46340;-75
2021/08/19 08:47:33;;;;;;;;;10.25;8.25;;;;;21.67;63.08;101438.09;5036631;28;45447;-75
2021/08/19 08:50:00;;;;;;;;;9.00;8.00;;;;;21.69;62.78;101436.16;5035101;28;45477;-75
2021/08/19 08:52:26;;;;;;;;;9.50;6.00;;;;;21.68;63.33;101435.28;5031953;28;45301;-75
2021/08/19 08:54:53;;;;;;;;;11.75;5.50;;;;;21.72;62.66;101447.47;5038068;28;45745;-75
2021/08/19 08:57:18;;;;;;;;;6.00;5.75;;;;;21.71;62.86;101443.06;5037631;28;45623;-76
2021/08/19 08:59:44;;;;;;;;;5.00;4.50;;;;;21.70;62.50;101440.50;5043304;28;46749;-75
2021/08/19 09:02:09;;;;;;;;;7.75;7.00;;;;;21.69;63.06;101437.00;5035110;28;58215;-75
2021/08/19 09:04:34;;;;;;;;;8.00;5.00;;;;;21.73;62.49;101441.13;5030382;28;58949;-77
2021/08/19 09:07:05;;;;;;;;;6.00;6.00;;;;;21.79;62.46;101450.50;5038605;28;56842;-74
2021/08/19 09:09:30;;;;;;;;;9.50;7.00;;;;;21.75;62.60;101441.00;5036941;28;45312;-74
2021/08/19 09:12:01;;;;;;;;;6.50;5.25;;;;;21.78;62.48;101449.66;5035191;28;45440;-74
2021/08/19 09:14:31;;;;;;;;;7.00;7.00;;;;;21.60;62.49;101430.53;5029143;28;45644;-74
2021/08/19 09:16:57;;;;;;;;;5.75;5.25;;;;;21.66;61.89;101442.56;5030986;28;45862;-74
2021/08/19 09:19:27;;;;;;;;;7.25;5.50;;;;;21.66;62.54;101455.94;5041350;28;45439;-74
2021/08/19 09:21:54;;;;;;;;;5.00;5.00;;;;;21.65;62.41;101448.03;5032630;28;45500;-74
2021/08/19 09:24:28;;;;;;;;;6.00;4.50;;;;;21.71;62.63;101450.25;5033898;28;45659;-74
2021/08/19 09:27:07;;;;;;;;;5.75;5.00;;;;;21.73;61.70;101451.00;5035340;28;45418;-74
2021/08/19 09:29:33;;;;;;;;;8.00;6.00;;;;;21.70;61.12;101448.53;5027657;28;45586;-74
2021/08/19 09:32:13;;;;;;;;;7.00;6.25;;;;;21.68;61.52;101442.47;5033988;28;45416;-74
2021/08/19 09:34:41;;;;;;;;;7.00;5.25;;;;;21.81;61.94;101451.22;5027407;28;46317;-73
2021/08/19 09:37:15;;;;;;;;;6.25;4.50;;;;;21.84;62.01;101446.47;5033019;28;45493;-72
2021/08/19 09:39:47;;;;;;;;;3.75;3.25;;;;;21.85;62.08;101440.16;5032225;28;45343;-72
2021/08/19 09:42:13;;;;;;;;;7.00;6.00;;;;;21.94;62.11;101443.09;5039420;28;45588;-73
2021/08/19 09:44:41;;;;;;;;;6.50;4.50;;;;;21.91;61.86;101438.81;5018995;28;45506;-73
2021/08/19 09:47:27;;;;;;;;;6.00;5.00;;;;;21.90;61.63;101450.50;5032505;28;45530;-73
2021/08/19 09:50:17;;;;;;;;;5.25;3.75;;;;;21.83;61.22;101444.78;5032684;28;45305;-72
2021/08/19 09:52:46;;;;;;;;;6.75;4.00;;;;;21.73;61.36;101435.78;5034494;28;45470;-72
2021/08/19 09:55:26;;;;;;;;;6.50;5.00;;;;;21.71;61.87;101436.84;5017832;28;47509;-73
2021/08/19 09:57:53;;;;;;;;;6.00;5.00;;;;;21.63;61.24;101438.31;5036210;28;45951;-72
2021/08/19 10:00:40;;;;;;;;;6.00;6.00;;;;;21.66;60.95;101447.91;5033624;28;45479;-72
2021/08/19 10:03:06;;;;;;;;;9.25;6.25;;;;;21.63;61.45;101437.47;5036089;28;45364;-72
2021/08/19 10:05:31;;;;;;;;;6.00;4.00;;;;;21.63;61.34;101441.00;5036650;28;46514;-73
2021/08/19 10:08:00;;;;;;;;;5.25;5.00;;;;;21.67;61.77;101438.09;5039532;28;45435;-72
2021/08/19 10:10:29;;;;;;;;;5.50;5.50;;;;;21.71;62.02;101435.03;5034668;28;45380;-73
2021/08/19 10:12:58;;;;;;;;;7.00;4.00;;;;;21.72;61.85;101435.91;5035534;28;45419;-73
2021/08/19 10:15:24;;;;;;;;;4.25;4.25;;;;;21.67;61.53;101440.78;5035171;28;46048;-75
2021/08/19 10:17:55;;;;;;;;;5.75;4.00;;;;;21.63;61.35;101430.31;5033675;28;45553;-74
2021/08/19 10:20:25;;;;;;;;;4.75;4.00;;;;;21.65;60.79;101435.53;5030009;28;45842;-73
2021/08/19 10:22:54;;;;;;;;;6.50;4.00;;;;;21.61;61.12;101426.03;5029365;28;45904;-73
2021/08/19 10:25:19;;;;;;;;;8.00;6.75;;;;;21.60;61.02;101425.19;5040832;28;45512;-73
2021/08/19 10:27:45;;;;;;;;;7.50;5.25;;;;;21.66;61.01;101442.56;5032551;28;45505;-74
2021/08/19 10:30:21;;;;;;;;;7.00;7.00;;;;;21.73;61.30;101442.97;5026040;28;45592;-74
2021/08/19 10:32:56;;;;;;;;;5.75;5.75;;;;;21.81;60.32;101441.38;5029806;28;45438;-73
2021/08/19 10:35:28;;;;;;;;;4.75;4.00;;;;;21.85;60.43;101441.97;5030098;28;45769;-73
2021/08/19 10:37:53;;;;;;;;;6.00;4.75;;;;;21.94;60.87;101432.38;5032014;28;45365;-74
2021/08/19 10:40:18;;;;;;;;;8.00;5.00;;;;;22.11;60.84;101434.59;5029672;28;45865;-73
2021/08/19 10:42:44;;;;;;;;;3.67;3.67;;;;;22.17;60.77;101420.69;5032146;28;46014;-74
2021/08/19 10:45:29;;;;;;;;;4.25;4.25;;;;;22.36;60.19;101433.44;5031685;28;48112;-73
2021/08/19 10:48:00;;;;;;;;;7.75;4.50;;;;;22.38;59.70;101436.84;5030224;28;45517;-74
2021/08/19 10:50:26;;;;;;;;;6.75;4.00;;;;;22.32;59.87;101438.19;5030037;28;45597;-74
2021/08/19 10:52:52;;;;;;;;;6.25;5.00;;;;;22.21;59.31;101423.97;5031092;28;45683;-74
2021/08/19 10:55:19;;;;;;;;;6.00;4.50;;;;;22.25;60.23;101442.34;5044882;28;46095;-74
2021/08/19 10:57:55;;;;;;;;;7.75;6.00;;;;;22.28;59.90;101434.06;5031957;28;45779;-74
2021/08/19 11:00:39;;;;;;;;;5.00;5.00;;;;;22.36;59.13;101439.66;5030346;28;45433;-74
2021/08/19 11:03:04;;;;;;;;;5.50;3.00;;;;;22.11;59.23;101414.00;5029883;28;45514;-74
2021/08/19 11:05:30;;;;;;;;;4.75;3.00;;;;;22.23;59.34;101438.09;5030300;28;45561;-74
2021/08/19 11:07:57;;;;;;;;;4.25;4.25;;;;;22.16;59.31;101442.25;5030388;28;45533;-75
2021/08/19 11:10:36;;;;;;;;;6.00;4.25;;;;;21.95;59.32;101421.53;5031175;28;45526;-74
2021/08/19 11:13:06;;;;;;;;;2.25;2.25;;;;;21.88;59.02;101441.75;5029440;28;45542;-76
2021/08/19 11:15:36;;;;;;;;;5.75;4.25;;;;;21.63;59.71;101422.28;5032592;28;46303;-75
2021/08/19 11:18:01;;;;;;;;;6.25;5.00;;;;;21.73;59.43;101445.63;5030122;28;45723;-74
2021/08/19 11:20:34;;;;;;;;;5.00;4.00;;;;;21.67;60.19;101435.44;5034315;28;45435;-74
2021/08/19 11:23:03;;;;;;;;;3.75;3.75;;;;;21.74;60.86;101440.16;5030661;28;45687;-74